Time;durP1;ratioP1;P1;durP2;ratioP2;P2;SDS_P1;SDS_P2;PMS_P1;PMS_P2;Temp;Humidity;BMP_temperature;BMP_pressure;BME280_temperature;BME280_humidity;BME280_pressure;Samples;Min_cycle;Max_cycle;Signal;HPM_P1;HPM_P2
2022/11/23 00:02:15;;;;;;;43.95;25.75;;;;;;;;;;4963755;28;20039;-76
2022/11/23 00:04:41;;;;;;;48.35;26.02;;;;;;;;;;4970624;28;20150;-75
2022/11/23 00:07:07;;;;;;;43.95;25.60;;;;;;;;;;4962152;28;20031;-76
2022/11/23 00:09:33;;;;;;;52.75;27.35;;;;;;;;;;4967219;28;20030;-75
2022/11/23 00:12:00;;;;;;;51.70;27.83;;;;;;;;;;4949603;28;20034;-75
2022/11/23 00:14:25;;;;;;;49.58;26.48;;;;;;;;;;4965311;28;20145;-75
2022/11/23 00:16:52;;;;;;;47.28;25.80;;;;;;;;;;4972051;28;20207;-75
2022/11/23 00:19:18;;;;;;;52.90;27.90;;;;;;;;;;4969603;28;20596;-76
2022/11/23 00:21:44;;;;;;;55.88;27.98;;;;;;;;;;4966735;28;20456;-74
2022/11/23 00:24:13;;;;;;;50.42;28.83;;;;;;;;;;4965036;28;20062;-75
2022/11/23 00:26:39;;;;;;;54.95;28.20;;;;;;;;;;4968657;28;20058;-75
2022/11/23 00:29:06;;;;;;;47.13;27.27;;;;;;;;;;4970866;28;20090;-77
2022/11/23 00:31:32;;;;;;;58.25;29.05;;;;;;;;;;4964506;28;20460;-76
2022/11/23 00:33:58;;;;;;;52.53;30.40;;;;;;;;;;4969805;28;20106;-76
2022/11/23 00:36:25;;;;;;;49.70;28.60;;;;;;;;;;4963424;28;20519;-76
2022/11/23 00:38:53;;;;;;;54.03;30.73;;;;;;;;;;4969154;28;20144;-76
2022/11/23 00:41:20;;;;;;;53.80;29.83;;;;;;;;;;4948737;28;20027;-76
2022/11/23 00:43:46;;;;;;;65.25;30.52;;;;;;;;;;4966260;28;20125;-76
2022/11/23 00:46:14;;;;;;;50.88;29.65;;;;;;;;;;4949755;28;20031;-75
2022/11/23 00:48:41;;;;;;;61.72;31.05;;;;;;;;;;4953100;28;20030;-75
2022/11/23 00:51:08;;;;;;;65.22;30.92;;;;;;;;;;4966724;28;20082;-74
2022/11/23 00:53:35;;;;;;;50.08;30.27;;;;;;;;;;4968032;28;20041;-76
2022/11/23 00:56:01;;;;;;;65.40;31.08;;;;;;;;;;4966604;28;20038;-74
2022/11/23 00:58:27;;;;;;;66.57;31.95;;;;;;;;;;4968637;28;20038;-76
2022/11/23 01:01:00;;;;;;;59.63;30.05;;;;;;;;;;4966355;28;20118;-76
2022/11/23 01:03:26;;;;;;;58.38;30.15;;;;;;;;;;4963026;28;20042;-77
2022/11/23 01:05:52;;;;;;;56.60;30.27;;;;;;;;;;4970304;28;20094;-76
2022/11/23 01:08:18;;;;;;;60.60;31.65;;;;;;;;;;4968673;28;20047;-77
2022/11/23 01:10:44;;;;;;;64.85;32.03;;;;;;;;;;4966555;28;20448;-76
2022/11/23 01:13:10;;;;;;;64.65;31.92;;;;;;;;;;4967094;28;20031;-77
2022/11/23 01:15:36;;;;;;;63.50;31.70;;;;;;;;;;4970329;28;20027;-76
2022/11/23 01:18:05;;;;;;;57.78;30.10;;;;;;;;;;4971101;28;20424;-76
2022/11/23 01:20:31;;;;;;;69.00;33.65;;;;;;;;;;4969926;28;20400;-76
2022/11/23 01:22:57;;;;;;;61.20;31.58;;;;;;;;;;4971633;28;20027;-76
2022/11/23 01:25:23;;;;;;;77.05;32.78;;;;;;;;;;4969061;28;20051;-75
2022/11/23 01:27:49;;;;;;;59.83;31.58;;;;;;;;;;4951720;28;20034;-76
2022/11/23 01:30:15;;;;;;;60.00;30.42;;;;;;;;;;4971275;28;20042;-76
2022/11/23 01:32:43;;;;;;;60.95;30.25;;;;;;;;;;4973017;28;20192;-76
2022/11/23 01:35:09;;;;;;;55.85;30.95;;;;;;;;;;4972672;28;20135;-76
2022/11/23 01:37:35;;;;;;;57.72;30.77;;;;;;;;;;4971269;28;20110;-76
2022/11/23 01:40:01;;;;;;;63.05;31.33;;;;;;;;;;4978877;28;20070;-75
2022/11/23 01:42:43;;;;;;;59.00;30.55;;;;;;;;;;4971388;28;20488;-75
2022/11/23 01:45:27;;;;;;;65.25;30.48;;;;;;;;;;4963560;28;20118;-74
2022/11/23 01:47:54;;;;;;;54.63;28.80;;;;;;;;;;4953368;28;20472;-75
2022/11/23 01:50:20;;;;;;;55.33;28.92;;;;;;;;;;4968424;28;20164;-74
2022/11/23 01:52:46;;;;;;;57.83;29.38;;;;;;;;;;4966811;28;20122;-75
2022/11/23 01:55:12;;;;;;;61.45;31.17;;;;;;;;;;4968751;28;20039;-75
2022/11/23 01:57:40;;;;;;;71.43;29.75;;;;;;;;;;4970216;28;20135;-74
2022/11/23 02:00:07;;;;;;;65.13;29.33;;;;;;;;;;4950526;28;20572;-74
2022/11/23 02:02:34;;;;;;;52.55;28.00;;;;;;;;;;4970845;28;20027;-75
2022/11/23 02:05:01;;;;;;;58.22;28.92;;;;;;;;;;4969262;28;20031;-76
2022/11/23 02:07:28;;;;;;;54.15;27.30;;;;;;;;;;4967116;28;20118;-75
2022/11/23 02:09:54;;;;;;;56.83;28.50;;;;;;;;;;4963314;28;20515;-75
2022/11/23 02:12:20;;;;;;;54.08;26.75;;;;;;;;;;4975735;28;20524;-75
2022/11/23 02:14:46;;;;;;;53.88;26.20;;;;;;;;;;4968583;28;20314;-74
2022/11/23 02:17:13;;;;;;;50.90;27.13;;;;;;;;;;4966733;28;20749;-75
2022/11/23 02:19:39;;;;;;;53.67;27.58;;;;;;;;;;4951862;28;20039;-75
2022/11/23 02:22:09;;;;;;;50.45;26.00;;;;;;;;;;4973108;28;20035;-76
2022/11/23 02:24:40;;;;;;;59.38;27.00;;;;;;;;;;4968144;28;20126;-76
2022/11/23 02:27:07;;;;;;;;;;;;;;;;;;4971835;28;20534;-76
2022/11/23 02:29:33;;;;;;;49.03;24.58;;;;;;;;;;4970040;28;20336;-76
2022/11/23 02:31:59;;;;;;;51.45;24.83;;;;;;;;;;4968987;28;20039;-76
2022/11/23 02:34:25;;;;;;;53.90;26.30;;;;;;;;;;4965658;28;20031;-75
2022/11/23 02:36:53;;;;;;;50.70;25.42;;;;;;;;;;4949401;28;20047;-74
2022/11/23 02:39:34;;;;;;;52.83;24.27;;;;;;;;;;4950184;28;20756;-73
2022/11/23 02:42:00;;;;;;;;;;;;;;;;;;4979805;28;20069;-74
2022/11/23 02:44:38;;;;;;;56.55;22.02;;;;;;;;;;4964163;28;19964;-73
2022/11/23 02:47:05;;;;;;;43.78;21.70;;;;;;;;;;4952804;28;20058;-74
2022/11/23 02:49:31;;;;;;;43.30;21.45;;;;;;;;;;4971299;28;20023;-74
2022/11/23 02:51:57;;;;;;;40.50;21.42;;;;;;;;;;4949812;28;20061;-74
2022/11/23 02:54:23;;;;;;;47.85;23.30;;;;;;;;;;4971806;28;20049;-74
2022/11/23 02:56:49;;;;;;;50.00;23.00;;;;;;;;;;4972085;28;20113;-73
2022/11/23 02:59:15;;;;;;;51.25;23.90;;;;;;;;;;4966683;28;20053;-74
2022/11/23 03:01:41;;;;;;;47.78;24.38;;;;;;;;;;4964523;28;20057;-74
2022/11/23 03:04:08;;;;;;;47.97;25.08;;;;;;;;;;4951431;28;20027;-73
2022/11/23 03:06:34;;;;;;;42.85;23.27;;;;;;;;;;4972608;28;20026;-73
2022/11/23 03:09:00;;;;;;;53.60;25.05;;;;;;;;;;4964330;28;21784;-74
2022/11/23 03:11:26;;;;;;;48.65;25.08;;;;;;;;;;4968418;28;20037;-74
2022/11/23 03:13:53;;;;;;;48.00;25.27;;;;;;;;;;4964037;28;20167;-76
2022/11/23 03:16:19;;;;;;;43.20;23.73;;;;;;;;;;4970470;28;20030;-75
2022/11/23 03:18:45;;;;;;;50.50;24.55;;;;;;;;;;4968048;28;20046;-75
2022/11/23 03:21:11;;;;;;;45.45;24.55;;;;;;;;;;4965820;28;20440;-75
2022/11/23 03:23:37;;;;;;;46.88;24.77;;;;;;;;;;4970452;28;20035;-75
2022/11/23 03:26:04;;;;;;;46.33;25.40;;;;;;;;;;4945694;28;20078;-75
2022/11/23 03:28:30;;;;;;;44.05;25.90;;;;;;;;;;4966156;28;20089;-75
2022/11/23 03:30:56;;;;;;;40.88;24.58;;;;;;;;;;4968375;28;20543;-75
2022/11/23 03:33:22;;;;;;;41.05;24.10;;;;;;;;;;4969256;28;20118;-75
2022/11/23 03:35:48;;;;;;;47.45;24.00;;;;;;;;;;4967029;28;20022;-75
2022/11/23 03:38:15;;;;;;;42.42;24.98;;;;;;;;;;4966455;28;20042;-75
2022/11/23 03:40:41;;;;;;;38.50;24.38;;;;;;;;;;4968390;28;20027;-75
2022/11/23 03:43:07;;;;;;;45.13;23.90;;;;;;;;;;4960824;28;20102;-74
2022/11/23 03:45:33;;;;;;;40.40;23.17;;;;;;;;;;4963691;28;20153;-75
2022/11/23 03:47:59;;;;;;;40.65;22.98;;;;;;;;;;4966325;28;20117;-75
2022/11/23 03:50:25;;;;;;;35.78;21.77;;;;;;;;;;4963211;28;20058;-75
2022/11/23 03:52:51;;;;;;;37.22;19.85;;;;;;;;;;4968618;28;20034;-75
2022/11/23 03:55:17;;;;;;;38.88;19.98;;;;;;;;;;4966622;28;20039;-76
2022/11/23 03:57:43;;;;;;;38.88;21.17;;;;;;;;;;4969076;28;20045;-75
2022/11/23 04:00:09;;;;;;;36.65;19.63;;;;;;;;;;4967324;28;20031;-75
2022/11/23 04:02:35;;;;;;;35.55;20.25;;;;;;;;;;4951416;28;20485;-76
2022/11/23 04:05:01;;;;;;;33.72;20.40;;;;;;;;;;4970131;28;20035;-75
2022/11/23 04:07:27;;;;;;;39.38;19.98;;;;;;;;;;4969403;28;20022;-75
2022/11/23 04:09:53;;;;;;;32.38;21.15;;;;;;;;;;4964828;28;20037;-75
2022/11/23 04:12:19;;;;;;;35.35;19.30;;;;;;;;;;4967311;28;20372;-75
2022/11/23 04:14:45;;;;;;;33.30;20.52;;;;;;;;;;4966279;28;20026;-74
2022/11/23 04:17:11;;;;;;;34.58;19.85;;;;;;;;;;4966246;28;20041;-75
2022/11/23 04:19:37;;;;;;;33.72;20.10;;;;;;;;;;4967141;28;20043;-76
2022/11/23 04:22:03;;;;;;;34.10;20.25;;;;;;;;;;4945886;28;20031;-76
2022/11/23 04:24:29;;;;;;;41.60;21.48;;;;;;;;;;4966755;28;20046;-75
2022/11/23 04:26:55;;;;;;;41.95;21.50;;;;;;;;;;4968476;28;20038;-74
2022/11/23 04:29:21;;;;;;;35.67;19.33;;;;;;;;;;4967233;28;20043;-75
2022/11/23 04:31:47;;;;;;;34.45;20.05;;;;;;;;;;4966264;28;20079;-77
2022/11/23 04:34:13;;;;;;;32.83;19.67;;;;;;;;;;4966984;28;20032;-76
2022/11/23 04:36:39;;;;;;;36.05;20.35;;;;;;;;;;4967845;28;20034;-76
2022/11/23 04:39:06;;;;;;;31.95;19.23;;;;;;;;;;4969084;28;20033;-75
2022/11/23 04:41:32;;;;;;;35.30;19.98;;;;;;;;;;4970681;28;20033;-76
2022/11/23 04:43:58;;;;;;;36.38;18.80;;;;;;;;;;4982332;28;20074;-76
2022/11/23 04:46:24;;;;;;;34.17;19.88;;;;;;;;;;4969161;28;20057;-76
2022/11/23 04:48:50;;;;;;;33.15;18.23;;;;;;;;;;4970725;28;20058;-75
2022/11/23 04:51:17;;;;;;;37.60;17.60;;;;;;;;;;4968913;28;20265;-75
2022/11/23 04:53:43;;;;;;;35.30;17.63;;;;;;;;;;4968767;28;20031;-76
2022/11/23 04:56:09;;;;;;;34.70;17.42;;;;;;;;;;4970466;28;20142;-76
2022/11/23 04:58:36;;;;;;;28.58;16.88;;;;;;;;;;4973785;28;20125;-75
2022/11/23 05:01:04;;;;;;;31.73;17.27;;;;;;;;;;4970884;28;20030;-75
2022/11/23 05:03:33;;;;;;;29.83;17.02;;;;;;;;;;4969964;28;20039;-76
2022/11/23 05:06:00;;;;;;;29.75;15.82;;;;;;;;;;4955210;28;20034;-77
2022/11/23 05:08:26;;;;;;;31.10;18.35;;;;;;;;;;4974686;28;20098;-76
2022/11/23 05:10:52;;;;;;;29.27;15.98;;;;;;;;;;4972784;28;20046;-76
2022/11/23 05:13:18;;;;;;;30.02;16.65;;;;;;;;;;4971515;28;20031;-77
2022/11/23 05:15:44;;;;;;;31.83;16.63;;;;;;;;;;4965210;28;20037;-77
2022/11/23 05:18:11;;;;;;;24.27;15.38;;;;;;;;;;4970196;28;20405;-77
2022/11/23 05:20:37;;;;;;;35.38;16.90;;;;;;;;;;4972509;28;20038;-77
2022/11/23 05:23:04;;;;;;;27.48;16.02;;;;;;;;;;4971692;28;20014;-77
2022/11/23 05:25:30;;;;;;;33.28;16.92;;;;;;;;;;4970646;28;20043;-78
2022/11/23 05:27:56;;;;;;;37.42;16.17;;;;;;;;;;4972067;28;20033;-77
2022/11/23 05:30:22;;;;;;;34.50;17.55;;;;;;;;;;4973648;28;20039;-77
2022/11/23 05:32:48;;;;;;;32.63;16.25;;;;;;;;;;4975285;28;20031;-77
2022/11/23 05:35:14;;;;;;;30.85;16.67;;;;;;;;;;4951579;28;20027;-77
2022/11/23 05:37:41;;;;;;;37.58;15.88;;;;;;;;;;4973877;28;20042;-76
2022/11/23 05:40:08;;;;;;;33.70;15.27;;;;;;;;;;4956478;28;20054;-76
2022/11/23 05:42:34;;;;;;;30.63;15.43;;;;;;;;;;4973380;28;20122;-78
2022/11/23 05:45:01;;;;;;;33.25;14.23;;;;;;;;;;4972794;28;20027;-77
2022/11/23 05:47:27;;;;;;;35.08;15.38;;;;;;;;;;4970945;28;20023;-77
2022/11/23 05:49:53;;;;;;;32.58;15.18;;;;;;;;;;4969871;28;20094;-78
2022/11/23 05:52:19;;;;;;;30.92;13.52;;;;;;;;;;4973112;28;20026;-77
2022/11/23 05:54:45;;;;;;;28.52;14.52;;;;;;;;;;4975239;28;20027;-77
2022/11/23 05:57:14;;;;;;;28.27;14.02;;;;;;;;;;4967243;28;20129;-77
2022/11/23 05:59:40;;;;;;;27.25;14.00;;;;;;;;;;4973737;28;20039;-78
2022/11/23 06:02:06;;;;;;;31.48;13.95;;;;;;;;;;4971028;28;20053;-77
2022/11/23 06:04:32;;;;;;;26.38;13.45;;;;;;;;;;4973028;28;20034;-78
2022/11/23 06:06:59;;;;;;;35.72;13.82;;;;;;;;;;4950594;28;20038;-76
2022/11/23 06:09:28;;;;;;;32.72;12.88;;;;;;;;;;4971543;28;20185;-76
2022/11/23 06:12:13;;;;;;;30.15;13.55;;;;;;;;;;4964656;28;20084;-76
2022/11/23 06:14:39;;;;;;;33.38;13.32;;;;;;;;;;4967677;28;20077;-76
2022/11/23 06:17:05;;;;;;;33.47;13.55;;;;;;;;;;4981659;28;20035;-75
2022/11/23 06:19:31;;;;;;;28.23;13.38;;;;;;;;;;4970029;28;20038;-76
2022/11/23 06:21:57;;;;;;;34.05;14.50;;;;;;;;;;4971061;28;20169;-77
2022/11/23 06:24:24;;;;;;;37.90;14.52;;;;;;;;;;4969371;28;20054;-76
2022/11/23 06:26:51;;;;;;;32.45;14.32;;;;;;;;;;4969089;28;20037;-76
2022/11/23 06:29:17;;;;;;;26.48;14.82;;;;;;;;;;4952062;28;20027;-76
2022/11/23 06:31:43;;;;;;;32.33;14.07;;;;;;;;;;4978071;28;20177;-76
2022/11/23 06:34:09;;;;;;;36.75;14.77;;;;;;;;;;4970503;28;20110;-76
2022/11/23 06:36:35;;;;;;;37.17;17.17;;;;;;;;;;4965080;28;20526;-75
2022/11/23 06:39:01;;;;;;;30.60;14.55;;;;;;;;;;4967017;28;20038;-76
2022/11/23 06:41:27;;;;;;;28.02;13.80;;;;;;;;;;4968059;28;20042;-76
2022/11/23 06:43:54;;;;;;;44.30;16.83;;;;;;;;;;4969082;28;20496;-76
2022/11/23 06:46:20;;;;;;;30.25;14.23;;;;;;;;;;4970590;28;20037;-75
2022/11/23 06:48:47;;;;;;;30.00;14.35;;;;;;;;;;4969390;28;20142;-76
2022/11/23 06:51:13;;;;;;;30.65;14.48;;;;;;;;;;4949988;28;20500;-76
2022/11/23 06:53:39;;;;;;;25.85;12.02;;;;;;;;;;4949880;28;20389;-76
2022/11/23 06:56:06;;;;;;;30.00;11.90;;;;;;;;;;4964997;28;20481;-76
2022/11/23 06:58:32;;;;;;;27.00;10.70;;;;;;;;;;4970928;28;20315;-77
2022/11/23 07:01:01;;;;;;;35.03;11.05;;;;;;;;;;4969412;28;20035;-76
2022/11/23 07:03:27;;;;;;;26.50;9.00;;;;;;;;;;4964822;28;20106;-76
2022/11/23 07:05:54;;;;;;;23.13;8.52;;;;;;;;;;4966451;28;20512;-75
2022/11/23 07:08:20;;;;;;;35.20;8.65;;;;;;;;;;4973728;28;20026;-76
2022/11/23 07:10:46;;;;;;;25.88;7.07;;;;;;;;;;4973690;28;20113;-75
2022/11/23 07:13:13;;;;;;;22.95;5.80;;;;;;;;;;4978102;28;20109;-75
2022/11/23 07:15:39;;;;;;;25.65;5.30;;;;;;;;;;4974581;28;20463;-75
2022/11/23 07:18:05;;;;;;;27.02;5.20;;;;;;;;;;4969686;28;20066;-75
2022/11/23 07:20:32;;;;;;;24.70;5.78;;;;;;;;;;4983983;28;20118;-75
2022/11/23 07:23:09;;;;;;;24.85;5.18;;;;;;;;;;4971621;28;20078;-75
2022/11/23 07:25:36;;;;;;;25.63;4.25;;;;;;;;;;4971658;28;20538;-74
2022/11/23 07:28:03;;;;;;;30.95;5.15;;;;;;;;;;4972497;28;20081;-75
2022/11/23 07:30:30;;;;;;;20.17;4.38;;;;;;;;;;4971343;28;20027;-73
2022/11/23 07:33:02;;;;;;;27.45;4.45;;;;;;;;;;4972305;28;20031;-75
2022/11/23 07:35:29;;;;;;;26.23;4.25;;;;;;;;;;4967776;28;20031;-75
2022/11/23 07:37:55;;;;;;;31.00;4.75;;;;;;;;;;4961911;28;20122;-75
2022/11/23 07:40:21;;;;;;;22.20;3.83;;;;;;;;;;4970925;28;20125;-75
2022/11/23 07:42:49;;;;;;;19.70;4.00;;;;;;;;;;4970785;28;20077;-75
2022/11/23 07:45:15;;;;;;;18.15;3.90;;;;;;;;;;4971175;28;20046;-75
2022/11/23 07:47:41;;;;;;;26.27;5.18;;;;;;;;;;4971220;28;20023;-75
2022/11/23 07:50:10;;;;;;;26.38;4.13;;;;;;;;;;4972540;28;20345;-75
2022/11/23 07:52:36;;;;;;;23.23;4.75;;;;;;;;;;4954575;28;20070;-76
2022/11/23 07:55:03;;;;;;;17.55;4.53;;;;;;;;;;4971879;28;20026;-76
2022/11/23 07:57:29;;;;;;;21.70;4.75;;;;;;;;;;4954170;28;20033;-76
2022/11/23 07:59:56;;;;;;;23.35;5.05;;;;;;;;;;4971458;28;20034;-75
2022/11/23 08:02:22;;;;;;;22.92;4.13;;;;;;;;;;4953750;28;20026;-75
2022/11/23 08:04:48;;;;;;;19.35;4.45;;;;;;;;;;4972282;28;20053;-75
2022/11/23 08:07:14;;;;;;;25.58;5.10;;;;;;;;;;4971362;28;20041;-75
2022/11/23 08:09:40;;;;;;;23.88;4.38;;;;;;;;;;4970701;28;20140;-76
2022/11/23 08:12:06;;;;;;;31.65;4.55;;;;;;;;;;4969986;28;20432;-76
2022/11/23 08:14:33;;;;;;;22.58;4.03;;;;;;;;;;4953647;28;20035;-76
2022/11/23 08:16:59;;;;;;;23.10;4.30;;;;;;;;;;4971225;28;20559;-76
2022/11/23 08:19:25;;;;;;;21.23;4.03;;;;;;;;;;4954565;28;20121;-77
2022/11/23 08:21:51;;;;;;;17.95;4.53;;;;;;;;;;4971947;28;20037;-74
2022/11/23 08:24:19;;;;;;;34.03;4.55;;;;;;;;;;4983343;28;20039;-75
2022/11/23 08:26:45;;;;;;;25.05;4.82;;;;;;;;;;4937344;28;20493;-76
2022/11/23 08:29:11;;;;;;;25.58;5.10;;;;;;;;;;4948101;28;20533;-75
2022/11/23 08:31:37;;;;;;;20.33;4.10;;;;;;;;;;4933432;29;20074;-75
2022/11/23 08:34:04;;;;;;;21.33;4.53;;;;;;;;;;4932817;29;20040;-75
2022/11/23 08:36:30;;;;;;;17.92;4.22;;;;;;;;;;4931414;29;20029;-75
2022/11/23 08:38:56;;;;;;;25.92;4.85;;;;;;;;;;4933567;29;20094;-76
2022/11/23 08:41:23;;;;;;;26.35;4.80;;;;;;;;;;4933610;29;20051;-76
2022/11/23 08:43:50;;;;;;;23.75;3.85;;;;;;;;;;4933353;29;20042;-74
2022/11/23 08:46:16;;;;;;;25.45;4.22;;;;;;;;;;4933051;29;20469;-77
2022/11/23 08:48:42;;;;;;;23.20;4.65;;;;;;;;;;4931017;29;20031;-75
2022/11/23 08:51:09;;;;;;;19.98;5.60;;;;;;;;;;4931355;29;20043;-75
2022/11/23 08:53:35;;;;;;;28.50;4.05;;;;;;;;;;4933453;28;20037;-76
2022/11/23 08:56:02;;;;;;;19.85;3.85;;;;;;;;;;4941198;29;20354;-75
2022/11/23 08:58:47;;;;;;;24.95;3.70;;;;;;;;;;4933210;29;20028;-76
2022/11/23 09:01:15;;;;;;;25.25;4.40;;;;;;;;;;4933316;29;20034;-76
2022/11/23 09:03:42;;;;;;;29.55;4.57;;;;;;;;;;4931542;29;20381;-75
2022/11/23 09:06:08;;;;;;;23.10;3.60;;;;;;;;;;4932556;29;20111;-76
2022/11/23 09:08:35;;;;;;;31.33;5.43;;;;;;;;;;4933492;29;20037;-76
2022/11/23 09:11:01;;;;;;;18.20;3.70;;;;;;;;;;4932064;29;20170;-76
2022/11/23 09:13:27;;;;;;;20.80;4.50;;;;;;;;;;4931917;29;20032;-76
2022/11/23 09:15:57;;;;;;;22.27;4.88;;;;;;;;;;4947030;28;20393;-76
2022/11/23 09:18:42;;;;;;;20.83;3.58;;;;;;;;;;4933090;29;20486;-75
2022/11/23 09:21:08;;;;;;;25.90;4.32;;;;;;;;;;4932781;29;20099;-76
2022/11/23 09:23:34;;;;;;;30.63;5.03;;;;;;;;;;4933131;29;20028;-76
2022/11/23 09:26:00;;;;;;;31.98;5.18;;;;;;;;;;4949163;28;20031;-75
2022/11/23 09:28:27;;;;;;;25.33;4.18;;;;;;;;;;4975162;28;20041;-75
2022/11/23 09:30:54;;;;;;;25.80;4.38;;;;;;;;;;4974229;28;20062;-76
2022/11/23 09:33:22;;;;;;;14.80;3.08;;;;;;;;;;4957648;28;20389;-76
2022/11/23 09:35:55;;;;;;;20.85;4.50;;;;;;;;;;4973698;28;20039;-77
2022/11/23 09:38:21;;;;;;;23.45;3.63;;;;;;;;;;4976085;28;20081;-77
2022/11/23 09:40:49;;;;;;;15.68;3.33;;;;;;;;;;4974675;28;20031;-76
2022/11/23 09:43:23;;;;;;;19.15;3.47;;;;;;;;;;4974326;28;20042;-77
2022/11/23 09:45:55;;;;;;;24.00;3.63;;;;;;;;;;4973360;28;20496;-76
2022/11/23 09:48:36;;;;;;;23.50;3.58;;;;;;;;;;4974711;28;20137;-75
2022/11/23 09:51:02;;;;;;;;;;;;;;;;;;4973304;28;20452;-77
2022/11/23 09:53:46;;;;;;;21.88;4.38;;;;;;;;;;4956537;28;19914;-75
2022/11/23 09:56:20;;;;;;;28.30;5.72;;;;;;;;;;4974454;28;20030;-76
2022/11/23 09:58:46;;;;;;;22.30;3.60;;;;;;;;;;4985479;28;20516;-76
2022/11/23 10:01:14;;;;;;;24.15;3.92;;;;;;;;;;4972397;28;20037;-76
2022/11/23 10:03:43;;;;;;;22.05;5.72;;;;;;;;;;4974085;28;20122;-76
2022/11/23 10:06:12;;;;;;;19.75;3.60;;;;;;;;;;4953734;28;20030;-76
2022/11/23 10:09:01;;;;;;;18.52;3.45;;;;;;;;;;4960769;28;20055;-76
2022/11/23 10:11:35;;;;;;;22.88;4.47;;;;;;;;;;4965488;28;20047;-76
2022/11/23 10:14:20;;;;;;;19.70;3.42;;;;;;;;;;4971905;28;20030;-76
2022/11/23 10:17:04;;;;;;;23.35;4.75;;;;;;;;;;4976235;28;20031;-76
2022/11/23 10:19:30;;;;;;;20.05;4.35;;;;;;;;;;4974146;28;20027;-76
2022/11/23 10:22:05;;;;;;;20.17;4.85;;;;;;;;;;4974081;28;20077;-76
2022/11/23 10:24:34;;;;;;;22.55;5.28;;;;;;;;;;4973747;28;20111;-76
2022/11/23 10:27:03;;;;;;;20.73;3.47;;;;;;;;;;4972286;28;20062;-75
2022/11/23 10:29:31;;;;;;;25.17;4.22;;;;;;;;;;4973348;28;20082;-76
2022/11/23 10:31:57;;;;;;;22.67;3.92;;;;;;;;;;4956543;28;20381;-76
2022/11/23 10:34:34;;;;;;;20.80;3.65;;;;;;;;;;4973982;28;20403;-76
2022/11/23 10:37:00;;;;;;;24.50;4.78;;;;;;;;;;4972255;28;20414;-76
2022/11/23 10:39:27;;;;;;;23.33;4.97;;;;;;;;;;4973599;28;20078;-75
2022/11/23 10:41:59;;;;;;;21.20;4.13;;;;;;;;;;4965371;28;20094;-75
2022/11/23 10:44:36;;;;;;;23.33;4.18;;;;;;;;;;4965579;28;20086;-74
2022/11/23 10:47:03;;;;;;;19.63;3.97;;;;;;;;;;4956099;28;20419;-77
2022/11/23 10:49:31;;;;;;;16.83;4.00;;;;;;;;;;4973232;28;20034;-76
2022/11/23 10:52:04;;;;;;;23.80;4.15;;;;;;;;;;4972405;28;20054;-76
2022/11/23 10:54:35;;;;;;;22.58;4.35;;;;;;;;;;4973575;28;20035;-76
2022/11/23 10:57:02;;;;;;;32.22;4.13;;;;;;;;;;4972782;28;20027;-77
2022/11/23 10:59:38;;;;;;;16.98;4.38;;;;;;;;;;4973269;28;20472;-76
2022/11/23 11:02:10;;;;;;;19.38;4.68;;;;;;;;;;4981438;28;20185;-76
2022/11/23 11:04:36;;;;;;;21.08;4.30;;;;;;;;;;4973359;28;20429;-76
2022/11/23 11:07:21;;;;;;;23.00;5.28;;;;;;;;;;4952268;28;20043;-76
2022/11/23 11:09:51;;;;;;;27.17;4.25;;;;;;;;;;4973410;28;20030;-74
2022/11/23 11:12:17;;;;;;;19.97;4.00;;;;;;;;;;4971298;28;20058;-76
2022/11/23 11:14:57;;;;;;;15.50;3.63;;;;;;;;;;4972559;28;20038;-76
2022/11/23 11:17:27;;;;;;;17.88;3.20;;;;;;;;;;4972875;28;20126;-75
2022/11/23 11:19:54;;;;;;;16.58;3.80;;;;;;;;;;4988584;28;20026;-75
2022/11/23 11:22:34;;;;;;;15.65;3.53;;;;;;;;;;4982990;28;20047;-76
2022/11/23 11:25:01;;;;;;;10.10;3.10;;;;;;;;;;4973236;28;20105;-77
2022/11/23 11:27:28;;;;;;;20.05;4.00;;;;;;;;;;4971424;28;20544;-75
2022/11/23 11:29:56;;;;;;;21.10;4.70;;;;;;;;;;4974947;28;20133;-75
2022/11/23 11:32:23;;;;;;;18.75;4.18;;;;;;;;;;4965617;28;20133;-76
2022/11/23 11:34:52;;;;;;;18.58;4.47;;;;;;;;;;4972187;28;20042;-75
2022/11/23 11:37:32;;;;;;;18.17;4.93;;;;;;;;;;4972493;28;20085;-76
2022/11/23 11:40:17;;;;;;;22.98;4.13;;;;;;;;;;4972150;28;20038;-77
2022/11/23 11:42:44;;;;;;;18.23;3.38;;;;;;;;;;4971521;28;20110;-76
2022/11/23 11:45:15;;;;;;;15.60;3.97;;;;;;;;;;4972310;28;20034;-76
2022/11/23 11:47:45;;;;;;;15.13;3.47;;;;;;;;;;4971872;28;20027;-76
2022/11/23 11:50:19;;;;;;;23.98;3.60;;;;;;;;;;4971972;28;20447;-75
2022/11/23 11:52:47;;;;;;;17.88;3.83;;;;;;;;;;4971891;28;20030;-76
2022/11/23 11:55:17;;;;;;;16.75;3.45;;;;;;;;;;4970908;28;20089;-76
2022/11/23 11:57:55;;;;;;;22.05;4.03;;;;;;;;;;4972041;28;20516;-75
2022/11/23 12:00:22;;;;;;;15.88;3.25;;;;;;;;;;4969999;28;20114;-75
2022/11/23 12:02:57;;;;;;;15.07;3.22;;;;;;;;;;4954319;28;20472;-75
2022/11/23 12:05:37;;;;;;;17.15;3.70;;;;;;;;;;4974329;28;20042;-76
2022/11/23 12:08:14;;;;;;;15.68;2.95;;;;;;;;;;4973641;28;20022;-76
2022/11/23 12:11:01;;;;;;;12.77;2.75;;;;;;;;;;4971321;28;20063;-76
2022/11/23 12:13:28;;;;;;;14.05;3.25;;;;;;;;;;4966233;28;20484;-76
2022/11/23 12:16:04;;;;;;;12.05;2.35;;;;;;;;;;4971355;28;20042;-76
2022/11/23 12:18:43;;;;;;;15.68;2.70;;;;;;;;;;4970064;28;20037;-76
2022/11/23 12:21:20;;;;;;;13.48;4.00;;;;;;;;;;4935472;29;20086;-75
2022/11/23 12:23:53;;;;;;;13.32;2.40;;;;;;;;;;4966869;28;20172;-76
2022/11/23 12:26:23;;;;;;;10.63;2.38;;;;;;;;;;4970474;28;20043;-76
2022/11/23 12:28:52;;;;;;;12.13;2.13;;;;;;;;;;4970667;28;20118;-76
2022/11/23 12:31:24;;;;;;;11.25;2.63;;;;;;;;;;4971454;28;20038;-76
2022/11/23 12:34:09;;;;;;;16.20;2.65;;;;;;;;;;4971304;28;20035;-74
2022/11/23 12:36:41;;;;;;;14.95;2.65;;;;;;;;;;4971371;28;20523;-73
2022/11/23 12:39:13;;;;;;;12.75;2.53;;;;;;;;;;4969798;28;20034;-75
2022/11/23 12:41:43;;;;;;;13.80;3.50;;;;;;;;;;4971514;28;20433;-75
2022/11/23 12:44:15;;;;;;;20.15;3.95;;;;;;;;;;4971108;28;20521;-74
2022/11/23 12:47:13;;;;;;;11.45;2.35;;;;;;;;;;4970354;28;20057;-75
2022/11/23 12:49:43;;;;;;;9.68;2.13;;;;;;;;;;4938466;28;20046;-75
2022/11/23 12:52:28;;;;;;;14.37;3.93;;;;;;;;;;4972694;28;20058;-76
2022/11/23 12:55:00;;;;;;;11.45;2.63;;;;;;;;;;4971122;28;20034;-75
2022/11/23 12:57:30;;;;;;;13.02;2.58;;;;;;;;;;4970103;28;20059;-77
2022/11/23 12:59:59;;;;;;;11.57;3.00;;;;;;;;;;4969470;28;20401;-76
2022/11/23 13:02:44;;;;;;;11.77;2.45;;;;;;;;;;4975342;28;20130;-75
2022/11/23 13:05:10;;;;;;;12.48;2.80;;;;;;;;;;4974833;28;20453;-76
2022/11/23 13:07:55;;;;;;;10.82;2.80;;;;;;;;;;4974735;28;20027;-75
2022/11/23 13:10:24;;;;;;;13.85;2.38;;;;;;;;;;4974009;28;20042;-76
2022/11/23 13:13:16;;;;;;;9.13;2.63;;;;;;;;;;4972629;28;20031;-75
2022/11/23 13:16:18;;;;;;;8.98;2.60;;;;;;;;;;4968455;28;20051;-74
2022/11/23 13:18:49;;;;;;;13.80;2.67;;;;;;;;;;4950439;29;20050;-75
2022/11/23 13:21:15;;;;;;;11.90;3.00;;;;;;;;;;4970434;28;20046;-74
2022/11/23 13:23:41;;;;;;;11.60;2.80;;;;;;;;;;4972369;28;20030;-74
2022/11/23 13:26:15;;;;;;;11.35;2.67;;;;;;;;;;4969900;28;20039;-76
2022/11/23 13:28:41;;;;;;;11.88;2.35;;;;;;;;;;4969763;28;20039;-76
2022/11/23 13:31:25;;;;;;;8.93;2.08;;;;;;;;;;4952743;29;20047;-76
2022/11/23 13:33:54;;;;;;;13.00;2.38;;;;;;;;;;4955160;29;20551;-75
2022/11/23 13:36:29;;;;;;;9.55;2.55;;;;;;;;;;4955288;28;20042;-75
2022/11/23 13:38:55;;;;;;;16.63;4.32;;;;;;;;;;4953838;28;20061;-76
2022/11/23 13:41:34;;;;;;;10.50;2.83;;;;;;;;;;4956558;28;20039;-75
2022/11/23 13:44:18;;;;;;;9.90;3.00;;;;;;;;;;4959202;29;20038;-74
2022/11/23 13:46:59;;;;;;;12.35;2.42;;;;;;;;;;4954918;29;20484;-74
2022/11/23 13:49:43;;;;;;;13.43;3.03;;;;;;;;;;4954354;28;20098;-75
2022/11/23 13:52:16;;;;;;;9.50;2.55;;;;;;;;;;4955111;28;20039;-74
2022/11/23 13:54:42;;;;;;;9.75;2.38;;;;;;;;;;4954218;28;20027;-74
2022/11/23 13:57:11;;;;;;;11.93;2.67;;;;;;;;;;4952993;28;20094;-75
2022/11/23 13:59:37;;;;;;;14.30;2.58;;;;;;;;;;4946829;28;20435;-76
2022/11/23 14:02:06;;;;;;;17.65;2.92;;;;;;;;;;4943608;28;20032;-75
2022/11/23 14:04:37;;;;;;;9.95;2.92;;;;;;;;;;4952180;28;20110;-73
2022/11/23 14:07:06;;;;;;;15.70;2.70;;;;;;;;;;4952056;28;20511;-74
2022/11/23 14:09:35;;;;;;;15.50;3.08;;;;;;;;;;4956902;28;20043;-75
2022/11/23 14:12:10;;;;;;;14.90;2.65;;;;;;;;;;4955198;28;20079;-74
2022/11/23 14:14:42;;;;;;;16.10;2.83;;;;;;;;;;4953439;28;20039;-74
2022/11/23 14:17:27;;;;;;;18.90;2.83;;;;;;;;;;4937982;28;20036;-74
2022/11/23 14:20:29;;;;;;;19.33;2.75;;;;;;;;;;4951993;28;20046;-73
2022/11/23 14:23:02;;;;;;;11.45;2.55;;;;;;;;;;4913664;29;20064;-73
2022/11/23 14:25:28;;;;;;;15.05;3.22;;;;;;;;;;4946550;28;20499;-74
2022/11/23 14:28:13;;;;;;;15.60;3.80;;;;;;;;;;4972577;28;20119;-73
2022/11/23 14:30:44;;;;;;;9.00;2.80;;;;;;;;;;4955968;28;20431;-74
2022/11/23 14:33:16;;;;;;;16.10;3.40;;;;;;;;;;4972682;28;20126;-74
2022/11/23 14:35:48;;;;;;;11.10;3.30;;;;;;;;;;4972328;28;20209;-75
2022/11/23 14:38:30;;;;;;;11.40;3.85;;;;;;;;;;4955963;28;20069;-75